Time;durP1;ratioP1;P1;durP2;ratioP2;P2;SDS_P1;SDS_P2;PMS_P1;PMS_P2;Temp;Humidity;BMP_temperature;BMP_pressure;BME280_temperature;BME280_humidity;BME280_pressure;Samples;Min_cycle;Max_cycle;Signal;HPM_P1;HPM_P2
2022/02/03 16:13:40;;;;;;;;;;;;;;;;;;4200467;28;20493;-33
2022/02/03 16:17:56;;;;;;;0.40;0.40;;;;;;;;;;4207424;28;20141;-32
2022/02/03 16:20:07;;;;;;;0.65;0.40;;;;;;;;;;4190644;28;20060;-32
2022/02/03 16:22:21;;;;;;;0.47;0.45;;;;;;;;;;4195712;28;20060;-32
2022/02/03 16:24:39;;;;;;;0.40;0.40;;;;;;;;;;4206025;28;20398;-32
2022/02/03 16:54:13;;;;;;;0.77;0.50;;;;;;;;;;4207451;28;20056;-32
2022/02/03 16:56:16;;;;;;;0.77;0.43;;;;;;;;;;4193590;28;20061;-32
2022/02/03 16:58:17;;;;;;;0.43;0.40;;;;;;;;;;4196330;28;20061;-32
2022/02/03 17:00:19;;;;;;;0.55;0.40;;;;;;;;;;4199700;28;20052;-32
2022/02/03 17:02:20;;;;;;;0.88;0.52;;;;;;;;;;4196730;28;20044;-32
2022/02/03 17:04:21;;;;;;;0.43;0.30;;;;;;;;;;4207049;28;20060;-32
2022/02/03 17:06:23;;;;;;;1.10;0.77;;;;;;;;;;4196992;28;20052;-32
2022/02/03 17:08:24;;;;;;;0.70;0.50;;;;;;;;;;4210543;28;20491;-32
2022/02/03 17:10:25;;;;;;;1.15;0.40;;;;;;;;;;4203505;28;20040;-32
2022/02/03 17:12:26;;;;;;;0.32;0.32;;;;;;;;;;4199137;28;20338;-32
2022/02/03 17:14:28;;;;;;;0.73;0.57;;;;;;;;;;4199050;28;20053;-32
2022/02/03 17:16:29;;;;;;;2.60;0.32;;;;;;;;;;4195342;28;20110;-32
2022/02/03 17:18:30;;;;;;;0.40;0.40;;;;;;;;;;4198848;28;20045;-32
2022/02/03 17:20:33;;;;;;;0.60;0.50;;;;;;;;;;4199076;28;20429;-32
2022/02/03 17:22:41;;;;;;;0.68;0.40;;;;;;;;;;4197549;28;20083;-32
2022/02/03 17:24:51;;;;;;;0.68;0.40;;;;;;;;;;4197780;28;20549;-32
2022/02/03 17:27:27;;;;;;;0.50;0.50;;;;;;;;;;4191094;28;20508;-32
2022/02/03 17:32:20;;;;;;;;;;;;;;;;;;4181171;28;20478;-32
2022/02/03 17:52:56;;;;;;;0.50;0.40;;;;;;;;;;4179222;28;20060;-32
2022/02/03 18:02:56;;;;;;;0.30;0.30;;;;;;;;;;4179037;28;20056;-32
2022/02/03 18:05:00;;;;;;;0.40;0.30;;;;;;;;;;4179069;28;20064;-32
2022/02/03 18:09:01;;;;;;;0.65;0.55;;;;;;;;;;4179978;28;20060;-32
2022/02/03 18:11:20;;;;;;;0.50;0.50;;;;;;;;;;4180118;28;20057;-32
2022/02/03 18:18:41;;;;;;;0.40;0.40;;;;;;;;;;4180193;28;20140;-32
2022/02/03 18:36:46;;;;;;;0.38;0.38;;;;;;;;;;4182072;28;20053;-32
2022/02/03 18:55:13;;;;;;;0.68;0.40;;;;;;;;;;4181471;28;20115;-32
2022/02/03 18:57:33;;;;;;;0.30;0.30;;;;;;;;;;4181388;28;20075;-33
2022/02/03 18:59:59;;;;;;;;;;;;;;;;;;4181642;28;20107;-32
2022/02/03 19:02:32;;;;;;;0.45;0.40;;;;;;;;;;4180681;28;20434;-32
2022/02/03 19:16:16;;;;;;;0.30;0.30;;;;;;;;;;4162875;28;20623;-32
2022/02/03 20:00:13;;;;;;;0.55;0.30;;;;;;;;;;4180040;28;19925;-32
2022/02/03 20:01:48;;;;;;;0.30;0.30;;;;;;;;;;4178373;28;20060;-32
2022/02/03 20:04:00;;;;;;;0.30;0.30;;;;;;;;;;4180533;28;20053;-32
2022/02/03 20:06:18;;;;;;;0.57;0.38;;;;;;;;;;4180731;28;20061;-33
2022/02/03 20:10:38;;;;;;;0.50;0.30;;;;;;;;;;4180429;28;20505;-32
2022/02/03 20:12:39;;;;;;;0.40;0.40;;;;;;;;;;4180567;28;20099;-32
2022/02/03 20:14:40;;;;;;;0.25;0.25;;;;;;;;;;4180720;28;20056;-32
2022/02/03 20:16:42;;;;;;;0.47;0.30;;;;;;;;;;4178676;28;20057;-32
2022/02/03 20:18:43;;;;;;;0.60;0.50;;;;;;;;;;4180700;28;20048;-32
2022/02/03 20:20:45;;;;;;;0.30;0.30;;;;;;;;;;4180276;28;20060;-32
2022/02/03 20:22:46;;;;;;;0.43;0.40;;;;;;;;;;4180596;28;20060;-32
2022/02/03 20:24:48;;;;;;;0.75;0.40;;;;;;;;;;4179042;28;20114;-32
2022/02/03 20:26:49;;;;;;;0.32;0.32;;;;;;;;;;4179126;28;20132;-32
2022/02/03 20:28:50;;;;;;;0.20;0.20;;;;;;;;;;4179378;28;20198;-32
2022/02/03 20:30:52;;;;;;;0.43;0.30;;;;;;;;;;4179931;28;20099;-32
2022/02/03 20:32:53;;;;;;;0.50;0.30;;;;;;;;;;4180287;28;20060;-32
2022/02/03 20:34:57;;;;;;;0.75;0.40;;;;;;;;;;4178823;28;20103;-32
2022/02/03 20:36:58;;;;;;;0.20;0.20;;;;;;;;;;4179049;28;20098;-32
2022/02/03 20:38:59;;;;;;;0.22;0.20;;;;;;;;;;4180114;28;20053;-32
2022/02/03 20:41:00;;;;;;;0.20;0.20;;;;;;;;;;4180174;28;20057;-32
2022/02/03 20:43:02;;;;;;;0.52;0.30;;;;;;;;;;4178821;28;20459;-32
2022/02/03 20:45:03;;;;;;;0.45;0.45;;;;;;;;;;4180717;28;20175;-32
2022/02/03 20:47:04;;;;;;;0.22;0.22;;;;;;;;;;4182893;28;20211;-32
2022/02/03 20:49:05;;;;;;;0.13;0.13;;;;;;;;;;4183211;28;20504;-32
2022/02/03 20:51:07;;;;;;;0.32;0.30;;;;;;;;;;4182655;28;20119;-32
2022/02/03 20:53:08;;;;;;;0.28;0.28;;;;;;;;;;4182145;28;20418;-32
2022/02/03 20:55:09;;;;;;;0.30;0.30;;;;;;;;;;4183096;28;20111;-32
2022/02/03 20:57:10;;;;;;;0.20;0.20;;;;;;;;;;4183087;28;20463;-32
2022/02/03 20:59:13;;;;;;;0.40;0.40;;;;;;;;;;4183049;28;20110;-32
2022/02/03 21:01:20;;;;;;;0.32;0.22;;;;;;;;;;4182601;28;20519;-32
2022/02/03 21:03:31;;;;;;;0.22;0.22;;;;;;;;;;4183054;28;20061;-32
2022/02/03 21:05:32;;;;;;;0.40;0.20;;;;;;;;;;4181876;28;20064;-32
2022/02/03 21:07:34;;;;;;;0.38;0.30;;;;;;;;;;4181886;28;20107;-32
2022/02/03 21:09:35;;;;;;;0.30;0.30;;;;;;;;;;4182805;28;20433;-32
2022/02/03 21:11:36;;;;;;;0.35;0.25;;;;;;;;;;4182938;28;20053;-32
2022/02/03 21:13:37;;;;;;;0.60;0.40;;;;;;;;;;4183297;28;20064;-32
2022/02/03 21:15:39;;;;;;;0.30;0.25;;;;;;;;;;4182860;28;20102;-32
2022/02/03 21:17:41;;;;;;;0.30;0.22;;;;;;;;;;4182717;28;20512;-32
2022/02/03 21:19:41;;;;;;;0.30;0.30;;;;;;;;;;4183067;28;20053;-32
2022/02/03 21:21:43;;;;;;;0.40;0.40;;;;;;;;;;4182757;28;20481;-32
2022/02/03 21:23:44;;;;;;;0.30;0.30;;;;;;;;;;4182835;28;20126;-32
2022/02/03 21:25:49;;;;;;;0.20;0.17;;;;;;;;;;4181371;28;20486;-32
2022/02/03 21:27:54;;;;;;;0.20;0.20;;;;;;;;;;4181785;28;20057;-32
2022/02/03 21:29:55;;;;;;;0.30;0.30;;;;;;;;;;4182612;28;20080;-32
2022/02/03 21:31:56;;;;;;;0.40;0.20;;;;;;;;;;4180841;28;20382;-32
2022/02/03 21:33:58;;;;;;;0.30;0.22;;;;;;;;;;4181638;28;20278;-32
2022/02/03 21:36:10;;;;;;;0.15;0.15;;;;;;;;;;4182539;28;20053;-32
2022/02/03 21:38:11;;;;;;;0.30;0.30;;;;;;;;;;4181326;28;20079;-32
2022/02/03 21:40:12;;;;;;;0.38;0.30;;;;;;;;;;4181255;28;20106;-32
2022/02/03 21:42:13;;;;;;;0.20;0.20;;;;;;;;;;4182333;28;20060;-32
2022/02/03 21:44:15;;;;;;;0.25;0.20;;;;;;;;;;4182512;28;20072;-32
2022/02/03 21:46:17;;;;;;;0.35;0.20;;;;;;;;;;4180542;28;20057;-33
2022/02/03 21:48:18;;;;;;;0.30;0.20;;;;;;;;;;4182228;28;20562;-32
2022/02/03 21:50:20;;;;;;;0.30;0.30;;;;;;;;;;4164690;28;20107;-33
2022/02/03 21:52:22;;;;;;;1.15;0.40;;;;;;;;;;4180933;28;20091;-33
2022/02/03 21:54:24;;;;;;;0.30;0.30;;;;;;;;;;4164732;28;20053;-32
2022/02/03 21:56:25;;;;;;;0.80;0.30;;;;;;;;;;4182174;28;20057;-33
2022/02/03 21:58:26;;;;;;;0.28;0.28;;;;;;;;;;4182352;28;20053;-32
2022/02/03 22:00:27;;;;;;;0.20;0.20;;;;;;;;;;4180939;28;20060;-32
2022/02/03 22:02:28;;;;;;;0.30;0.30;;;;;;;;;;4181696;28;20060;-32
2022/02/03 22:04:29;;;;;;;0.50;0.40;;;;;;;;;;4182077;28;20057;-32
2022/02/03 22:06:30;;;;;;;0.20;0.20;;;;;;;;;;4181898;28;20106;-32
2022/02/03 22:08:32;;;;;;;0.70;0.35;;;;;;;;;;4182073;28;20489;-32
2022/02/03 22:10:33;;;;;;;0.20;0.20;;;;;;;;;;4180922;28;20120;-32
2022/02/03 22:12:34;;;;;;;0.20;0.20;;;;;;;;;;4181984;28;20434;-32
2022/02/03 22:14:35;;;;;;;0.40;0.30;;;;;;;;;;4181055;28;20059;-32
2022/02/03 22:16:36;;;;;;;0.30;0.30;;;;;;;;;;4181747;28;20057;-32
2022/02/03 22:18:37;;;;;;;1.35;0.30;;;;;;;;;;4181978;28;20052;-32
2022/02/03 22:21:02;;;;;;;0.30;0.30;;;;;;;;;;4164451;28;20103;-32
2022/02/03 22:27:39;;;;;;;0.10;0.10;;;;;;;;;;4160541;28;20057;-32
2022/02/03 22:39:02;;;;;;;0.30;0.22;;;;;;;;;;4181626;28;20442;-32
2022/02/03 22:45:57;;;;;;;0.25;0.25;;;;;;;;;;4181604;28;20049;-32
2022/02/03 22:48:13;;;;;;;0.60;0.20;;;;;;;;;;4181311;28;20060;-33
2022/02/03 22:50:14;;;;;;;0.32;0.20;;;;;;;;;;4180323;28;20057;-32
2022/02/03 22:52:18;;;;;;;0.30;0.30;;;;;;;;;;4181251;28;20523;-32
2022/02/03 22:54:19;;;;;;;0.20;0.20;;;;;;;;;;4180079;28;20057;-32
2022/02/03 22:56:21;;;;;;;0.30;0.20;;;;;;;;;;4181131;28;20096;-32
2022/02/03 23:00:59;;;;;;;0.20;0.20;;;;;;;;;;4181210;28;20065;-32
2022/02/03 23:03:01;;;;;;;0.40;0.30;;;;;;;;;;4181188;28;20091;-32
2022/02/03 23:05:04;;;;;;;0.35;0.35;;;;;;;;;;4181179;28;20061;-32
2022/02/03 23:07:14;;;;;;;0.30;0.30;;;;;;;;;;4181160;28;20068;-32
2022/02/03 23:09:37;;;;;;;0.22;0.20;;;;;;;;;;4180625;28;20053;-32
2022/02/03 23:15:59;;;;;;;0.32;0.20;;;;;;;;;;4180636;28;20493;-33
2022/02/03 23:18:07;;;;;;;0.32;0.30;;;;;;;;;;4181385;28;20103;-32
2022/02/03 23:20:15;;;;;;;0.40;0.30;;;;;;;;;;4164190;28;20129;-32
2022/02/03 23:22:16;;;;;;;0.40;0.32;;;;;;;;;;4163153;28;20474;-32
2022/02/03 23:24:19;;;;;;;0.38;0.20;;;;;;;;;;4180964;28;20064;-32
2022/02/03 23:26:24;;;;;;;0.20;0.20;;;;;;;;;;4180783;28;20056;-32
2022/02/03 23:28:31;;;;;;;0.17;0.17;;;;;;;;;;4181000;28;20078;-32
2022/02/03 23:30:32;;;;;;;0.20;0.20;;;;;;;;;;4180872;28;20052;-32
2022/02/03 23:32:33;;;;;;;0.20;0.15;;;;;;;;;;4180597;28;20106;-32
2022/02/03 23:34:35;;;;;;;0.17;0.17;;;;;;;;;;4179491;28;20057;-32
2022/02/03 23:36:37;;;;;;;0.30;0.30;;;;;;;;;;4179356;28;20122;-32
